sensor_id;sensor_type;location;lat;lon;timestamp;temperature;humidity
47434;SHT31;33184;48.774;8.918;2023-05-09T00:00:04;12.87;92.56
47434;SHT31;33184;48.774;8.918;2023-05-09T00:05:25;12.85;92.55
47434;SHT31;33184;48.774;8.918;2023-05-09T00:10:46;12.75;92.69
47434;SHT31;33184;48.774;8.918;2023-05-09T00:16:06;12.81;92.96
47434;SHT31;33184;48.774;8.918;2023-05-09T00:21:27;12.88;93.02
47434;SHT31;33184;48.774;8.918;2023-05-09T00:26:48;12.90;93.01
47434;SHT31;33184;48.774;8.918;2023-05-09T00:32:09;12.88;92.92
47434;SHT31;33184;48.774;8.918;2023-05-09T00:37:30;12.88;92.90
47434;SHT31;33184;48.774;8.918;2023-05-09T00:42:50;12.94;93.00
47434;SHT31;33184;48.774;8.918;2023-05-09T00:48:11;12.94;93.06
47434;SHT31;33184;48.774;8.918;2023-05-09T00:53:31;12.95;93.03
47434;SHT31;33184;48.774;8.918;2023-05-09T00:58:53;13.04;93.02
47434;SHT31;33184;48.774;8.918;2023-05-09T01:04:15;13.01;92.96
47434;SHT31;33184;48.774;8.918;2023-05-09T01:09:51;12.91;93.24
47434;SHT31;33184;48.774;8.918;2023-05-09T01:15:30;12.85;93.60
47434;SHT31;33184;48.774;8.918;2023-05-09T01:21:07;12.90;93.84
47434;SHT31;33184;48.774;8.918;2023-05-09T01:32:13;12.93;94.13
47434;SHT31;33184;48.774;8.918;2023-05-09T01:37:37;12.95;94.29
47434;SHT31;33184;48.774;8.918;2023-05-09T01:43:02;12.98;94.24
47434;SHT31;33184;48.774;8.918;2023-05-09T01:48:26;12.95;94.36
47434;SHT31;33184;48.774;8.918;2023-05-09T01:53:50;12.98;94.44
47434;SHT31;33184;48.774;8.918;2023-05-09T01:59:13;12.95;94.64
47434;SHT31;33184;48.774;8.918;2023-05-09T02:04:35;12.97;94.65
47434;SHT31;33184;48.774;8.918;2023-05-09T02:09:57;13.01;94.66
47434;SHT31;33184;48.774;8.918;2023-05-09T02:15:18;13.05;94.65
47434;SHT31;33184;48.774;8.918;2023-05-09T02:20:39;13.03;94.56
47434;SHT31;33184;48.774;8.918;2023-05-09T02:26:00;13.07;94.51
47434;SHT31;33184;48.774;8.918;2023-05-09T02:31:22;13.07;94.43
47434;SHT31;33184;48.774;8.918;2023-05-09T02:36:45;13.08;94.32
47434;SHT31;33184;48.774;8.918;2023-05-09T02:42:07;13.01;94.11
47434;SHT31;33184;48.774;8.918;2023-05-09T02:47:28;12.98;94.06
47434;SHT31;33184;48.774;8.918;2023-05-09T02:52:48;12.94;93.89
47434;SHT31;33184;48.774;8.918;2023-05-09T02:58:09;12.94;93.91
47434;SHT31;33184;48.774;8.918;2023-05-09T03:03:30;12.94;93.80
47434;SHT31;33184;48.774;8.918;2023-05-09T03:08:53;13.00;93.80
47434;SHT31;33184;48.774;8.918;2023-05-09T03:14:15;12.98;93.79
47434;SHT31;33184;48.774;8.918;2023-05-09T03:19:36;12.98;93.85
47434;SHT31;33184;48.774;8.918;2023-05-09T03:24:57;12.95;93.93
47434;SHT31;33184;48.774;8.918;2023-05-09T03:30:17;12.94;93.92
47434;SHT31;33184;48.774;8.918;2023-05-09T03:35:41;12.93;93.81
47434;SHT31;33184;48.774;8.918;2023-05-09T03:41:02;12.90;93.78
47434;SHT31;33184;48.774;8.918;2023-05-09T03:46:23;12.91;93.75
47434;SHT31;33184;48.774;8.918;2023-05-09T03:51:44;12.93;93.74
47434;SHT31;33184;48.774;8.918;2023-05-09T03:57:08;12.93;93.74
47434;SHT31;33184;48.774;8.918;2023-05-09T04:02:29;12.91;93.78
47434;SHT31;33184;48.774;8.918;2023-05-09T04:07:49;12.90;93.82
47434;SHT31;33184;48.774;8.918;2023-05-09T04:13:11;12.87;93.92
47434;SHT31;33184;48.774;8.918;2023-05-09T04:18:32;12.91;94.03
47434;SHT31;33184;48.774;8.918;2023-05-09T04:23:53;12.90;93.99
47434;SHT31;33184;48.774;8.918;2023-05-09T04:29:22;12.97;94.15
47434;SHT31;33184;48.774;8.918;2023-05-09T04:34:47;12.98;94.12
47434;SHT31;33184;48.774;8.918;2023-05-09T04:40:13;13.03;94.23
47434;SHT31;33184;48.774;8.918;2023-05-09T04:45:40;13.08;94.32
47434;SHT31;33184;48.774;8.918;2023-05-09T04:51:01;13.18;94.53
47434;SHT31;33184;48.774;8.918;2023-05-09T04:56:22;13.18;94.47
47434;SHT31;33184;48.774;8.918;2023-05-09T05:01:43;13.22;94.32
47434;SHT31;33184;48.774;8.918;2023-05-09T05:07:03;13.26;94.44
47434;SHT31;33184;48.774;8.918;2023-05-09T05:12:25;13.25;94.34
47434;SHT31;33184;48.774;8.918;2023-05-09T05:17:46;13.24;94.21
47434;SHT31;33184;48.774;8.918;2023-05-09T05:23:08;13.21;94.23
47434;SHT31;33184;48.774;8.918;2023-05-09T05:28:28;13.28;94.29
47434;SHT31;33184;48.774;8.918;2023-05-09T05:33:49;13.34;94.42
47434;SHT31;33184;48.774;8.918;2023-05-09T05:39:10;13.49;94.34
47434;SHT31;33184;48.774;8.918;2023-05-09T05:44:30;13.52;94.14
47434;SHT31;33184;48.774;8.918;2023-05-09T05:49:51;13.52;93.97
47434;SHT31;33184;48.774;8.918;2023-05-09T05:55:12;13.48;94.06
47434;SHT31;33184;48.774;8.918;2023-05-09T06:00:32;13.55;94.07
47434;SHT31;33184;48.774;8.918;2023-05-09T06:05:58;13.60;94.08
47434;SHT31;33184;48.774;8.918;2023-05-09T06:11:20;13.67;93.97
47434;SHT31;33184;48.774;8.918;2023-05-09T06:16:41;13.80;93.80
47434;SHT31;33184;48.774;8.918;2023-05-09T06:22:01;13.94;93.69
47434;SHT31;33184;48.774;8.918;2023-05-09T06:27:23;14.14;93.35
47434;SHT31;33184;48.774;8.918;2023-05-09T06:32:43;14.37;92.86
47434;SHT31;33184;48.774;8.918;2023-05-09T06:38:04;14.42;92.25
47434;SHT31;33184;48.774;8.918;2023-05-09T06:43:25;14.54;91.77
47434;SHT31;33184;48.774;8.918;2023-05-09T06:48:45;14.72;91.66
47434;SHT31;33184;48.774;8.918;2023-05-09T06:54:06;14.89;91.28
47434;SHT31;33184;48.774;8.918;2023-05-09T06:59:26;14.99;91.16
47434;SHT31;33184;48.774;8.918;2023-05-09T07:04:47;15.02;90.90
47434;SHT31;33184;48.774;8.918;2023-05-09T07:10:08;15.00;90.94
47434;SHT31;33184;48.774;8.918;2023-05-09T07:15:29;14.91;90.76
47434;SHT31;33184;48.774;8.918;2023-05-09T07:20:49;14.85;90.67
47434;SHT31;33184;48.774;8.918;2023-05-09T07:26:10;14.98;90.59
47434;SHT31;33184;48.774;8.918;2023-05-09T07:31:30;15.22;90.46
47434;SHT31;33184;48.774;8.918;2023-05-09T07:36:51;15.37;89.55
47434;SHT31;33184;48.774;8.918;2023-05-09T07:42:12;15.56;89.47
47434;SHT31;33184;48.774;8.918;2023-05-09T07:47:33;15.78;89.34
47434;SHT31;33184;48.774;8.918;2023-05-09T07:52:53;15.90;88.54
47434;SHT31;33184;48.774;8.918;2023-05-09T07:58:15;16.02;88.31
47434;SHT31;33184;48.774;8.918;2023-05-09T08:03:36;16.05;87.66
47434;SHT31;33184;48.774;8.918;2023-05-09T08:08:57;16.04;87.13
47434;SHT31;33184;48.774;8.918;2023-05-09T08:14:18;15.88;86.68
47434;SHT31;33184;48.774;8.918;2023-05-09T08:19:38;15.82;87.16
47434;SHT31;33184;48.774;8.918;2023-05-09T08:24:59;15.94;86.64
47434;SHT31;33184;48.774;8.918;2023-05-09T08:30:19;16.11;85.33
47434;SHT31;33184;48.774;8.918;2023-05-09T08:35:40;16.35;85.13
47434;SHT31;33184;48.774;8.918;2023-05-09T08:41:01;16.41;83.15
47434;SHT31;33184;48.774;8.918;2023-05-09T08:46:42;16.66;83.03
47434;SHT31;33184;48.774;8.918;2023-05-09T08:52:03;16.97;82.71
47434;SHT31;33184;48.774;8.918;2023-05-09T08:57:25;17.10;81.06
47434;SHT31;33184;48.774;8.918;2023-05-09T09:02:46;17.32;79.59
47434;SHT31;33184;48.774;8.918;2023-05-09T09:08:08;17.35;78.25
47434;SHT31;33184;48.774;8.918;2023-05-09T09:13:29;17.83;80.09
47434;SHT31;33184;48.774;8.918;2023-05-09T09:18:51;18.17;78.74
47434;SHT31;33184;48.774;8.918;2023-05-09T09:24:14;18.19;78.37
47434;SHT31;33184;48.774;8.918;2023-05-09T09:29:36;18.46;78.23
47434;SHT31;33184;48.774;8.918;2023-05-09T09:35:08;18.39;76.72
47434;SHT31;33184;48.774;8.918;2023-05-09T09:40:29;18.63;77.81
47434;SHT31;33184;48.774;8.918;2023-05-09T09:45:50;18.65;74.41
47434;SHT31;33184;48.774;8.918;2023-05-09T09:51:10;18.49;73.67
47434;SHT31;33184;48.774;8.918;2023-05-09T10:02:04;19.34;73.32
47434;SHT31;33184;48.774;8.918;2023-05-09T10:07:26;19.26;70.65
47434;SHT31;33184;48.774;8.918;2023-05-09T10:12:47;19.41;70.96
47434;SHT31;33184;48.774;8.918;2023-05-09T10:18:11;19.80;71.29
47434;SHT31;33184;48.774;8.918;2023-05-09T10:23:37;20.01;70.71
47434;SHT31;33184;48.774;8.918;2023-05-09T10:29:01;20.24;70.01
47434;SHT31;33184;48.774;8.918;2023-05-09T10:34:25;20.54;68.75
47434;SHT31;33184;48.774;8.918;2023-05-09T10:39:47;20.44;67.79
47434;SHT31;33184;48.774;8.918;2023-05-09T10:45:12;20.84;68.48
47434;SHT31;33184;48.774;8.918;2023-05-09T10:50:34;21.13;64.90
47434;SHT31;33184;48.774;8.918;2023-05-09T10:55:57;21.33;65.52
47434;SHT31;33184;48.774;8.918;2023-05-09T11:01:31;21.54;61.66
47434;SHT31;33184;48.774;8.918;2023-05-09T11:06:54;21.51;63.19
47434;SHT31;33184;48.774;8.918;2023-05-09T11:12:15;21.68;59.31
47434;SHT31;33184;48.774;8.918;2023-05-09T11:17:38;22.08;61.13
47434;SHT31;33184;48.774;8.918;2023-05-09T11:23:00;21.90;60.16
47434;SHT31;33184;48.774;8.918;2023-05-09T11:28:31;22.00;59.04
47434;SHT31;33184;48.774;8.918;2023-05-09T11:34:00;21.96;57.45
47434;SHT31;33184;48.774;8.918;2023-05-09T11:39:24;21.53;59.46
47434;SHT31;33184;48.774;8.918;2023-05-09T11:44:45;21.33;58.67
47434;SHT31;33184;48.774;8.918;2023-05-09T11:50:12;21.06;59.98
47434;SHT31;33184;48.774;8.918;2023-05-09T11:55:36;21.15;58.15
47434;SHT31;33184;48.774;8.918;2023-05-09T12:00:57;20.85;59.69
47434;SHT31;33184;48.774;8.918;2023-05-09T12:06:18;20.54;59.54
47434;SHT31;33184;48.774;8.918;2023-05-09T12:11:47;20.30;62.10
47434;SHT31;33184;48.774;8.918;2023-05-09T12:17:08;20.28;63.17
47434;SHT31;33184;48.774;8.918;2023-05-09T12:22:29;20.32;62.39
47434;SHT31;33184;48.774;8.918;2023-05-09T12:27:50;20.54;62.62
47434;SHT31;33184;48.774;8.918;2023-05-09T12:33:14;20.84;62.73
47434;SHT31;33184;48.774;8.918;2023-05-09T12:38:35;20.96;60.88
47434;SHT31;33184;48.774;8.918;2023-05-09T12:43:56;21.20;59.81
47434;SHT31;33184;48.774;8.918;2023-05-09T12:49:20;21.40;60.30
47434;SHT31;33184;48.774;8.918;2023-05-09T12:54:45;22.08;58.84
47434;SHT31;33184;48.774;8.918;2023-05-09T13:00:07;22.00;58.07
47434;SHT31;33184;48.774;8.918;2023-05-09T13:05:30;22.18;57.91
47434;SHT31;33184;48.774;8.918;2023-05-09T13:10:51;22.51;57.04
47434;SHT31;33184;48.774;8.918;2023-05-09T13:16:12;22.69;57.64
47434;SHT31;33184;48.774;8.918;2023-05-09T13:21:33;22.58;55.39
47434;SHT31;33184;48.774;8.918;2023-05-09T13:26:54;22.21;56.01
47434;SHT31;33184;48.774;8.918;2023-05-09T13:32:15;22.39;54.99
47434;SHT31;33184;48.774;8.918;2023-05-09T13:37:35;22.43;55.68
47434;SHT31;33184;48.774;8.918;2023-05-09T13:42:56;22.90;53.96
47434;SHT31;33184;48.774;8.918;2023-05-09T13:48:16;23.10;55.31
47434;SHT31;33184;48.774;8.918;2023-05-09T13:53:37;22.17;56.86
47434;SHT31;33184;48.774;8.918;2023-05-09T13:58:58;22.58;57.05
47434;SHT31;33184;48.774;8.918;2023-05-09T14:04:18;22.82;55.40
47434;SHT31;33184;48.774;8.918;2023-05-09T14:09:39;22.55;55.99
47434;SHT31;33184;48.774;8.918;2023-05-09T14:15:00;22.07;56.64
47434;SHT31;33184;48.774;8.918;2023-05-09T14:20:21;21.93;56.58
47434;SHT31;33184;48.774;8.918;2023-05-09T14:25:42;21.58;57.48
47434;SHT31;33184;48.774;8.918;2023-05-09T14:31:02;21.37;58.90
47434;SHT31;33184;48.774;8.918;2023-05-09T14:36:23;21.17;57.64
47434;SHT31;33184;48.774;8.918;2023-05-09T14:41:43;20.98;59.57
47434;SHT31;33184;48.774;8.918;2023-05-09T14:47:07;20.95;60.63
47434;SHT31;33184;48.774;8.918;2023-05-09T14:52:28;20.92;59.41
47434;SHT31;33184;48.774;8.918;2023-05-09T14:57:48;20.79;60.62
47434;SHT31;33184;48.774;8.918;2023-05-09T15:03:09;20.54;58.30
47434;SHT31;33184;48.774;8.918;2023-05-09T15:08:30;20.24;58.77
47434;SHT31;33184;48.774;8.918;2023-05-09T15:13:52;20.28;59.45
47434;SHT31;33184;48.774;8.918;2023-05-09T15:19:12;20.30;58.00
47434;SHT31;33184;48.774;8.918;2023-05-09T15:24:33;20.40;58.90
47434;SHT31;33184;48.774;8.918;2023-05-09T15:29:54;20.42;59.56
47434;SHT31;33184;48.774;8.918;2023-05-09T15:35:15;20.44;59.75
47434;SHT31;33184;48.774;8.918;2023-05-09T15:40:38;20.41;60.29
47434;SHT31;33184;48.774;8.918;2023-05-09T15:45:59;20.44;60.37
47434;SHT31;33184;48.774;8.918;2023-05-09T15:51:20;20.35;59.82
47434;SHT31;33184;48.774;8.918;2023-05-09T15:56:41;20.24;60.82
47434;SHT31;33184;48.774;8.918;2023-05-09T16:02:01;20.17;62.33
47434;SHT31;33184;48.774;8.918;2023-05-09T16:07:22;20.21;61.61
47434;SHT31;33184;48.774;8.918;2023-05-09T16:12:42;20.04;61.48
47434;SHT31;33184;48.774;8.918;2023-05-09T16:18:03;19.97;60.77
47434;SHT31;33184;48.774;8.918;2023-05-09T16:23:23;19.90;61.08
47434;SHT31;33184;48.774;8.918;2023-05-09T16:28:45;19.65;62.40
47434;SHT31;33184;48.774;8.918;2023-05-09T16:34:05;19.55;63.48
47434;SHT31;33184;48.774;8.918;2023-05-09T16:39:26;19.50;63.76
47434;SHT31;33184;48.774;8.918;2023-05-09T16:44:47;19.43;64.12
47434;SHT31;33184;48.774;8.918;2023-05-09T16:50:08;19.39;65.96
47434;SHT31;33184;48.774;8.918;2023-05-09T16:55:29;19.01;68.77
47434;SHT31;33184;48.774;8.918;2023-05-09T17:00:50;18.63;72.26
47434;SHT31;33184;48.774;8.918;2023-05-09T17:06:10;18.33;74.06
47434;SHT31;33184;48.774;8.918;2023-05-09T17:11:31;18.00;73.93
47434;SHT31;33184;48.774;8.918;2023-05-09T17:16:52;17.85;75.33
47434;SHT31;33184;48.774;8.918;2023-05-09T17:22:12;17.44;75.91
47434;SHT31;33184;48.774;8.918;2023-05-09T17:27:33;17.23;75.04
47434;SHT31;33184;48.774;8.918;2023-05-09T17:32:53;16.87;78.09
47434;SHT31;33184;48.774;8.918;2023-05-09T17:38:14;16.56;78.07
47434;SHT31;33184;48.774;8.918;2023-05-09T17:43:34;16.42;78.79
47434;SHT31;33184;48.774;8.918;2023-05-09T17:48:55;16.35;80.06
47434;SHT31;33184;48.774;8.918;2023-05-09T17:54:16;16.29;81.04
47434;SHT31;33184;48.774;8.918;2023-05-09T17:59:38;16.21;80.99
47434;SHT31;33184;48.774;8.918;2023-05-09T18:05:00;16.12;81.03
47434;SHT31;33184;48.774;8.918;2023-05-09T18:10:21;16.00;80.27
47434;SHT31;33184;48.774;8.918;2023-05-09T18:15:42;15.95;80.37
47434;SHT31;33184;48.774;8.918;2023-05-09T18:21:02;16.08;81.14
47434;SHT31;33184;48.774;8.918;2023-05-09T18:26:24;16.04;81.60
47434;SHT31;33184;48.774;8.918;2023-05-09T18:31:46;16.05;82.54
47434;SHT31;33184;48.774;8.918;2023-05-09T18:37:07;16.05;82.30
47434;SHT31;33184;48.774;8.918;2023-05-09T18:42:28;15.98;82.77
47434;SHT31;33184;48.774;8.918;2023-05-09T18:47:48;16.00;83.44
47434;SHT31;33184;48.774;8.918;2023-05-09T18:53:09;15.80;83.58
47434;SHT31;33184;48.774;8.918;2023-05-09T18:58:29;15.74;83.81
47434;SHT31;33184;48.774;8.918;2023-05-09T19:03:50;15.81;84.51
47434;SHT31;33184;48.774;8.918;2023-05-09T19:09:13;15.87;84.64
47434;SHT31;33184;48.774;8.918;2023-05-09T19:14:34;15.77;84.19
47434;SHT31;33184;48.774;8.918;2023-05-09T19:19:56;15.63;84.18
47434;SHT31;33184;48.774;8.918;2023-05-09T19:25:17;15.42;84.77
47434;SHT31;33184;48.774;8.918;2023-05-09T19:30:39;15.47;85.50
47434;SHT31;33184;48.774;8.918;2023-05-09T19:36:00;15.47;85.18
47434;SHT31;33184;48.774;8.918;2023-05-09T19:41:20;15.50;85.54
47434;SHT31;33184;48.774;8.918;2023-05-09T19:46:41;15.43;86.00
47434;SHT31;33184;48.774;8.918;2023-05-09T19:52:02;15.44;86.21
47434;SHT31;33184;48.774;8.918;2023-05-09T19:57:22;15.54;86.27
47434;SHT31;33184;48.774;8.918;2023-05-09T20:02:43;15.56;86.33
47434;SHT31;33184;48.774;8.918;2023-05-09T20:08:04;15.50;86.04
47434;SHT31;33184;48.774;8.918;2023-05-09T20:13:25;15.17;86.36
47434;SHT31;33184;48.774;8.918;2023-05-09T20:18:46;14.92;87.40
47434;SHT31;33184;48.774;8.918;2023-05-09T20:24:07;14.75;88.05
47434;SHT31;33184;48.774;8.918;2023-05-09T20:29:28;14.62;88.36
47434;SHT31;33184;48.774;8.918;2023-05-09T20:34:49;14.52;88.59
47434;SHT31;33184;48.774;8.918;2023-05-09T20:40:10;14.47;88.64
47434;SHT31;33184;48.774;8.918;2023-05-09T20:45:30;14.44;88.56
47434;SHT31;33184;48.774;8.918;2023-05-09T20:50:51;14.31;88.44
47434;SHT31;33184;48.774;8.918;2023-05-09T20:56:12;14.28;88.60
47434;SHT31;33184;48.774;8.918;2023-05-09T21:01:32;14.24;88.52
47434;SHT31;33184;48.774;8.918;2023-05-09T21:06:56;14.21;88.26
47434;SHT31;33184;48.774;8.918;2023-05-09T21:12:16;14.18;88.44
47434;SHT31;33184;48.774;8.918;2023-05-09T21:17:37;14.21;88.42
47434;SHT31;33184;48.774;8.918;2023-05-09T21:22:57;14.14;88.52
47434;SHT31;33184;48.774;8.918;2023-05-09T21:28:18;14.09;88.70
47434;SHT31;33184;48.774;8.918;2023-05-09T21:33:39;14.09;89.12
47434;SHT31;33184;48.774;8.918;2023-05-09T21:39:00;14.10;89.48
47434;SHT31;33184;48.774;8.918;2023-05-09T21:44:26;14.11;89.95
47434;SHT31;33184;48.774;8.918;2023-05-09T21:49:47;14.16;89.84
47434;SHT31;33184;48.774;8.918;2023-05-09T21:55:08;14.04;90.10
47434;SHT31;33184;48.774;8.918;2023-05-09T22:00:28;14.03;90.14
47434;SHT31;33184;48.774;8.918;2023-05-09T22:05:49;14.01;90.28
47434;SHT31;33184;48.774;8.918;2023-05-09T22:11:09;14.04;90.45
47434;SHT31;33184;48.774;8.918;2023-05-09T22:16:30;14.13;90.69
47434;SHT31;33184;48.774;8.918;2023-05-09T22:21:50;14.16;90.35
47434;SHT31;33184;48.774;8.918;2023-05-09T22:27:11;14.14;90.24
47434;SHT31;33184;48.774;8.918;2023-05-09T22:32:31;14.01;89.94
47434;SHT31;33184;48.774;8.918;2023-05-09T22:37:52;13.90;90.10
47434;SHT31;33184;48.774;8.918;2023-05-09T22:43:14;13.85;90.33
47434;SHT31;33184;48.774;8.918;2023-05-09T22:48:34;13.77;90.46
47434;SHT31;33184;48.774;8.918;2023-05-09T22:53:55;13.72;90.66
47434;SHT31;33184;48.774;8.918;2023-05-09T22:59:16;13.65;91.28
47434;SHT31;33184;48.774;8.918;2023-05-09T23:04:36;13.65;91.41
47434;SHT31;33184;48.774;8.918;2023-05-09T23:09:57;13.53;91.73
47434;SHT31;33184;48.774;8.918;2023-05-09T23:15:17;13.56;91.85
47434;SHT31;33184;48.774;8.918;2023-05-09T23:20:38;13.53;91.99
47434;SHT31;33184;48.774;8.918;2023-05-09T23:25:58;13.53;91.94
47434;SHT31;33184;48.774;8.918;2023-05-09T23:31:19;13.56;92.07
47434;SHT31;33184;48.774;8.918;2023-05-09T23:36:40;13.39;91.60
47434;SHT31;33184;48.774;8.918;2023-05-09T23:42:00;13.34;91.56
47434;SHT31;33184;48.774;8.918;2023-05-09T23:47:21;13.29;91.63
47434;SHT31;33184;48.774;8.918;2023-05-09T23:52:41;13.19;91.67
47434;SHT31;33184;48.774;8.918;2023-05-09T23:58:02;13.15;92.06
